CheckWX is a tool to help pilots better visualize weather data.  It is not intended as a substitute for an official pre-flight weather briefing.

11:41:51 UTC

LLBG METAR
Ben Gurion International Airport
Tel Aviv, Israel
Current

22 mins ago

LLBG 221120Z 32013KT CAVOK 32/20 Q1009 NOSIG
Observed
Aug-22 @ 11:20 UTC
Wind
  • 320° at 13 KTS
Visibility
10,000+ meters
Flight Rules
VFR
Cloud Levels
  • Clear skies
Temperature
32°C / 90°F
Dewpoint
20°C / 68°F
Heat Index
34°C / 94°F
Humidity
49%
Altimeter
29.79" Hg
Pressure
1008.92 hPa
Previous

52 mins ago

LLBG 221050Z 34012KT CAVOK 33/20 Q1009 NOSIG
Observed
Aug-22 @ 10:50 UTC
Wind
  • 340° at 12 KTS
Visibility
10,000+ meters
Flight Rules
VFR
Cloud Levels
  • Clear skies
Temperature
33°C / 91°F
Dewpoint
20°C / 68°F
Heat Index
35°C / 95°F
Humidity
46%
Altimeter
29.79" Hg
Pressure
1008.92 hPa
Previous

1 hour ago

LLBG 221020Z 31011KT CAVOK 32/20 Q1009 NOSIG
Observed
Aug-22 @ 10:20 UTC
Wind
  • 310° at 11 KTS
Visibility
10,000+ meters
Flight Rules
VFR
Cloud Levels
  • Clear skies
Temperature
32°C / 90°F
Dewpoint
20°C / 68°F
Heat Index
34°C / 94°F
Humidity
49%
Altimeter
29.79" Hg
Pressure
1008.92 hPa